createdAt,value
2019-05-11T00:00:09.051Z,20.00
2019-05-11T00:02:37.609Z,20.10
2019-05-11T00:07:36.024Z,19.00
2019-05-11T00:10:06.657Z,19.40
2019-05-11T00:12:36.260Z,19.20
2019-05-11T00:17:34.116Z,19.90
2019-05-11T00:20:02.980Z,19.90
2019-05-11T00:22:32.589Z,19.60
2019-05-11T00:25:01.168Z,19.50
2019-05-11T00:27:29.722Z,20.00
2019-05-11T00:37:23.422Z,19.00
2019-05-11T00:39:51.980Z,19.80
2019-05-11T00:44:49.235Z,19.10
2019-05-11T00:47:18.056Z,19.00
2019-05-11T00:49:46.571Z,19.20
2019-05-11T00:52:15.055Z,20.00
2019-05-11T00:54:43.571Z,20.00
2019-05-11T00:57:12.171Z,19.30
2019-05-11T00:59:40.659Z,20.00
2019-05-11T01:02:09.143Z,18.90
2019-05-11T01:07:06.287Z,19.20
2019-05-11T01:09:34.827Z,19.80
2019-05-11T01:12:03.315Z,20.00
2019-05-11T01:16:59.984Z,19.10
2019-05-11T01:19:28.812Z,19.00
2019-05-11T01:24:26.171Z,19.80
2019-05-11T01:29:22.844Z,19.00
2019-05-11T01:31:51.624Z,19.70
2019-05-11T01:34:20.141Z,19.30
2019-05-11T01:39:16.879Z,19.90
2019-05-11T01:41:45.748Z,19.30
2019-05-11T01:44:14.231Z,19.60
2019-05-11T01:49:10.990Z,19.20
2019-05-11T01:51:39.857Z,19.80
2019-05-11T01:54:08.972Z,19.50
2019-05-11T01:56:37.725Z,19.00
2019-05-11T01:59:06.256Z,20.00
2019-05-11T02:01:34.984Z,19.80
2019-05-11T02:04:03.496Z,19.90
2019-05-11T02:06:32.252Z,19.10
2019-05-11T02:09:00.742Z,19.20
2019-05-11T02:13:57.361Z,19.40
2019-05-11T02:16:26.180Z,19.40
2019-05-11T02:18:54.968Z,18.80
2019-05-11T02:21:23.464Z,19.90
2019-05-11T02:23:51.952Z,19.00
2019-05-11T02:26:20.396Z,19.20
2019-05-11T02:31:17.302Z,19.80
2019-05-11T02:36:14.221Z,18.80
2019-05-11T02:38:42.674Z,19.70
2019-05-11T02:41:11.225Z,19.50
2019-05-11T02:43:40.799Z,19.20
2019-05-11T02:46:10.318Z,19.50
2019-05-11T02:48:39.082Z,19.60
2019-05-11T02:51:08.369Z,19.50
2019-05-11T02:53:40.344Z,19.70
2019-05-11T02:56:09.061Z,19.10
2019-05-11T03:03:34.597Z,19.50
2019-05-11T03:06:03.064Z,18.70
2019-05-11T03:10:59.653Z,18.60
2019-05-11T03:13:28.099Z,19.00
2019-05-11T03:18:24.720Z,19.20
2019-05-11T03:20:53.958Z,19.50
2019-05-11T03:23:22.727Z,18.90
2019-05-11T03:25:51.169Z,19.60
2019-05-11T03:28:19.644Z,19.10
2019-05-11T03:30:48.397Z,18.90
2019-05-11T03:33:17.273Z,19.40
2019-05-11T03:40:42.109Z,18.80
2019-05-11T03:43:11.091Z,19.60
2019-05-11T03:45:39.546Z,18.70
2019-05-11T03:48:08.586Z,18.80
2019-05-11T03:53:05.254Z,18.60
2019-05-11T03:55:33.984Z,18.60
2019-05-11T03:58:02.797Z,18.90
2019-05-11T04:03:00.675Z,19.60
2019-05-11T04:07:57.929Z,19.30
2019-05-11T04:10:26.732Z,19.40
2019-05-11T04:12:55.248Z,19.30
2019-05-11T04:15:25.136Z,19.50
2019-05-11T04:20:22.297Z,18.50
2019-05-11T04:27:47.047Z,18.60
2019-05-11T04:32:44.197Z,18.70
2019-05-11T04:35:13.965Z,19.30
2019-05-11T04:37:42.442Z,18.80
2019-05-11T04:40:12.295Z,19.00
2019-05-11T04:42:54.391Z,18.60
2019-05-11T04:45:11.804Z,19.30
2019-05-11T04:50:10.121Z,18.60
2019-05-11T04:52:38.640Z,18.90
2019-05-11T04:55:08.172Z,19.10
2019-05-11T05:00:06.088Z,19.20
2019-05-11T05:02:34.564Z,19.20
2019-05-11T05:05:04.076Z,18.90
2019-05-11T05:07:32.825Z,19.00
2019-05-11T05:12:29.983Z,19.30
2019-05-11T05:14:58.424Z,18.30
2019-05-11T05:17:26.936Z,18.90
2019-05-11T05:24:52.195Z,18.50
2019-05-11T05:27:20.646Z,19.20
2019-05-11T05:29:49.351Z,18.50
2019-05-11T05:34:45.975Z,19.00
2019-05-11T05:39:42.751Z,18.90
2019-05-11T05:42:11.195Z,18.90
2019-05-11T05:44:39.664Z,19.00
2019-05-11T05:47:08.132Z,18.80
2019-05-11T05:49:37.410Z,18.50
2019-05-11T05:52:06.185Z,19.40
2019-05-11T05:57:03.076Z,19.00
2019-05-11T05:59:32.294Z,18.60
2019-05-11T06:06:57.357Z,19.40
2019-05-11T06:09:26.066Z,18.50
2019-05-11T06:14:24.573Z,18.50
2019-05-11T06:19:21.205Z,19.30
2019-05-11T06:24:18.120Z,18.60
2019-05-11T06:26:46.692Z,19.40
2019-05-11T06:29:15.128Z,18.50
2019-05-11T06:31:43.611Z,19.40
2019-05-11T06:34:12.060Z,19.20
2019-05-11T06:36:40.881Z,18.80
2019-05-11T06:39:09.961Z,19.30
2019-05-11T06:41:38.410Z,18.70
2019-05-11T06:44:06.896Z,18.70
2019-05-11T06:46:35.439Z,19.00
2019-05-11T06:51:33.748Z,18.70
2019-05-11T06:56:30.760Z,19.60
2019-05-11T06:58:59.222Z,19.10
2019-05-11T07:01:27.931Z,19.20
2019-05-11T07:11:22.769Z,19.00
2019-05-11T07:13:51.212Z,19.30
2019-05-11T07:16:19.841Z,19.30
2019-05-11T07:18:48.319Z,18.70
2019-05-11T07:23:45.169Z,18.80
2019-05-11T07:28:42.046Z,18.60
2019-05-11T07:31:10.824Z,19.50
2019-05-11T07:33:40.117Z,19.10
2019-05-11T07:36:08.611Z,19.40
2019-05-11T07:38:38.219Z,18.80
2019-05-11T07:41:08.783Z,19.10
2019-05-11T07:43:38.107Z,19.40
2019-05-11T07:46:07.915Z,19.70
2019-05-11T07:48:38.604Z,19.30
2019-05-11T07:51:08.754Z,19.00
2019-05-11T07:56:08.255Z,18.90
2019-05-11T08:01:08.723Z,19.00
2019-05-11T08:03:38.881Z,19.50
2019-05-11T08:06:08.912Z,18.80
2019-05-11T08:11:08.096Z,19.20
2019-05-11T08:21:08.873Z,19.70
2019-05-11T08:26:08.398Z,19.50
2019-05-11T08:28:38.127Z,18.90
2019-05-11T08:31:08.200Z,19.20
2019-05-11T08:33:38.943Z,18.90
2019-05-11T08:36:08.513Z,19.60
2019-05-11T08:38:37.946Z,19.90
2019-05-11T08:41:08.086Z,19.30
2019-05-11T08:43:38.879Z,19.30
2019-05-11T08:46:07.934Z,19.50
2019-05-11T08:48:38.938Z,19.60
2019-05-11T08:51:08.517Z,19.30
2019-05-11T08:53:38.712Z,19.40
2019-05-11T08:56:11.160Z,19.40
2019-05-11T08:58:38.617Z,19.10
2019-05-11T09:03:38.751Z,19.40
2019-05-11T09:06:08.439Z,19.40
2019-05-11T09:13:39.236Z,19.00
2019-05-11T09:16:07.891Z,19.80
2019-05-11T09:21:08.393Z,19.40
2019-05-11T09:23:40.689Z,19.00
2019-05-11T09:36:08.554Z,19.70
2019-05-11T09:38:38.347Z,19.00
2019-05-11T09:41:11.874Z,19.20
2019-05-11T09:43:38.062Z,19.30
2019-05-11T09:46:08.320Z,19.70
2019-05-11T09:48:37.879Z,19.60
2019-05-11T09:53:38.833Z,19.60
2019-05-11T09:56:08.086Z,20.10
2019-05-11T09:58:38.648Z,20.20
2019-05-11T10:01:08.826Z,19.60
2019-05-11T10:03:38.652Z,20.10
2019-05-11T10:06:08.488Z,19.30
2019-05-11T10:13:38.437Z,19.50
2019-05-11T10:16:10.535Z,19.20
2019-05-11T10:18:38.697Z,19.50
2019-05-11T10:21:08.204Z,19.20
2019-05-11T10:23:38.631Z,19.30
2019-05-11T10:26:07.935Z,19.10
2019-05-11T10:28:38.961Z,19.60
2019-05-11T10:31:08.582Z,19.10
2019-05-11T10:36:08.353Z,19.60
2019-05-11T10:38:37.984Z,20.00
2019-05-11T10:41:08.724Z,19.70
2019-05-11T10:43:38.075Z,19.80
2019-05-11T10:46:17.010Z,19.90
2019-05-11T10:48:38.908Z,19.80
2019-05-11T10:51:08.246Z,19.10
2019-05-11T10:53:38.494Z,20.20
2019-05-11T10:56:08.746Z,19.30
2019-05-11T10:58:38.025Z,20.00
2019-05-11T11:03:37.759Z,19.30
2019-05-11T11:06:08.589Z,19.90
2019-05-11T11:08:38.433Z,20.20
2019-05-11T11:11:08.093Z,20.10
2019-05-11T11:13:38.708Z,19.40
2019-05-11T11:18:38.103Z,19.30
2019-05-11T11:21:08.728Z,20.20
2019-05-11T11:23:38.548Z,20.20
2019-05-11T11:26:08.319Z,20.30
2019-05-11T11:28:38.378Z,19.60
2019-05-11T11:31:07.888Z,20.20
2019-05-11T11:36:08.527Z,19.30
2019-05-11T11:38:37.565Z,19.80
2019-05-11T11:41:07.693Z,20.10
2019-05-11T11:43:37.744Z,20.30
2019-05-11T11:46:08.435Z,19.90
2019-05-11T11:48:38.552Z,20.10
2019-05-11T11:51:08.069Z,20.00
2019-05-11T11:53:38.365Z,19.70
2019-05-11T11:58:38.130Z,19.90
2019-05-11T12:01:08.220Z,20.20
2019-05-11T12:03:37.931Z,19.60
2019-05-11T12:06:08.694Z,19.80
2019-05-11T12:08:38.894Z,20.20
2019-05-11T12:11:08.232Z,19.90
2019-05-11T12:16:07.756Z,20.20
2019-05-11T12:18:38.106Z,20.40
2019-05-11T12:21:07.973Z,19.80
2019-05-11T12:23:38.181Z,19.80
2019-05-11T12:26:08.519Z,19.40
2019-05-11T12:28:38.233Z,20.40
2019-05-11T12:31:08.780Z,19.70
2019-05-11T12:36:08.071Z,19.40
2019-05-11T12:46:08.198Z,20.30
2019-05-11T12:51:07.978Z,20.30
2019-05-11T12:53:38.554Z,19.60
2019-05-11T12:56:08.250Z,20.20
2019-05-11T12:58:39.454Z,19.60
2019-05-11T13:01:08.972Z,19.50
2019-05-11T13:06:08.395Z,20.10
2019-05-11T13:08:38.717Z,19.80
2019-05-11T13:11:09.235Z,19.40
2019-05-11T13:13:37.858Z,20.10
2019-05-11T13:16:08.731Z,19.70
2019-05-11T13:21:07.786Z,19.70
2019-05-11T13:26:08.563Z,19.90
2019-05-11T13:28:37.789Z,19.30
2019-05-11T13:31:08.265Z,20.30
2019-05-11T13:33:38.761Z,20.20
2019-05-11T13:36:09.111Z,19.70
2019-05-11T13:38:38.794Z,19.60
2019-05-11T13:41:08.163Z,20.00
2019-05-11T13:43:38.630Z,19.40
2019-05-11T13:46:08.780Z,19.30
2019-05-11T13:48:38.706Z,20.20
2019-05-11T13:51:08.926Z,19.30
2019-05-11T13:53:37.796Z,20.20
2019-05-11T13:56:07.999Z,19.30
2019-05-11T13:58:38.162Z,20.00
2019-05-11T14:01:08.058Z,20.30
2019-05-11T14:03:37.703Z,19.70
2019-05-11T14:06:08.727Z,20.00
2019-05-11T14:08:38.373Z,19.50
2019-05-11T14:11:08.554Z,19.40
2019-05-11T14:13:38.675Z,20.40
2019-05-11T14:18:38.672Z,20.10
2019-05-11T14:21:07.972Z,19.30
2019-05-11T14:28:37.696Z,19.30
2019-05-11T14:31:08.187Z,20.30
2019-05-11T14:33:38.593Z,19.50
2019-05-11T14:36:08.686Z,20.40
2019-05-11T14:43:38.344Z,19.50
2019-05-11T14:46:08.602Z,20.30
2019-05-11T14:48:39.154Z,19.40
2019-05-11T14:51:08.554Z,20.10
2019-05-11T14:53:37.958Z,19.30
2019-05-11T14:56:08.310Z,20.30
2019-05-11T14:58:38.555Z,20.10
2019-05-11T15:01:08.885Z,19.50
2019-05-11T15:03:38.040Z,19.40
2019-05-11T15:08:38.698Z,19.30
2019-05-11T15:11:08.318Z,19.90
2019-05-11T15:13:38.187Z,19.50
2019-05-11T15:16:08.078Z,19.90
2019-05-11T15:18:41.441Z,20.00
2019-05-11T15:21:08.366Z,20.20
2019-05-11T15:23:37.842Z,20.10
2019-05-11T15:26:09.387Z,19.50
2019-05-11T15:33:38.268Z,19.40
2019-05-11T15:36:07.736Z,20.20
2019-05-11T15:38:37.947Z,19.20
2019-05-11T15:46:07.202Z,20.30
2019-05-11T15:48:52.787Z,20.10
2019-05-11T15:51:08.068Z,19.30
2019-05-11T15:53:37.019Z,20.10
2019-05-11T15:56:05.567Z,19.90
2019-05-11T15:58:34.285Z,19.60
2019-05-11T16:01:02.735Z,19.50
2019-05-11T16:03:31.227Z,19.90
2019-05-11T16:06:00.348Z,20.10
2019-05-11T16:08:28.791Z,20.10
2019-05-11T16:13:28.500Z,19.80
2019-05-11T16:15:57.805Z,20.30
2019-05-11T16:18:27.336Z,19.40
2019-05-11T16:23:23.943Z,19.60
2019-05-11T16:28:20.861Z,19.30
2019-05-11T16:33:17.986Z,19.60
2019-05-11T16:35:49.043Z,19.50
2019-05-11T16:38:18.795Z,20.00
2019-05-11T16:40:48.143Z,19.20
2019-05-11T16:43:19.208Z,19.30
2019-05-11T16:45:50.718Z,20.30
2019-05-11T16:48:18.421Z,19.70
2019-05-11T16:50:48.052Z,19.30
2019-05-11T16:53:18.206Z,19.30
2019-05-11T16:55:48.664Z,19.60
2019-05-11T16:58:19.803Z,20.20
2019-05-11T17:00:48.942Z,20.20
2019-05-11T17:03:18.121Z,20.30
2019-05-11T17:05:48.512Z,19.50
2019-05-11T17:08:18.755Z,20.30
2019-05-11T17:10:59.085Z,19.50
2019-05-11T17:13:28.138Z,19.50
2019-05-11T17:15:58.253Z,19.30
2019-05-11T17:18:28.389Z,20.10
2019-05-11T17:20:58.504Z,19.80
2019-05-11T17:23:30.999Z,19.70
2019-05-11T17:25:58.607Z,20.20
2019-05-11T17:30:58.643Z,19.70
2019-05-11T17:33:26.667Z,20.40
2019-05-11T17:35:58.880Z,20.50
2019-05-11T17:38:28.088Z,20.50
2019-05-11T17:40:57.822Z,20.20
2019-05-11T17:43:28.058Z,20.20
2019-05-11T17:45:58.462Z,20.30
2019-05-11T17:48:28.384Z,20.20
2019-05-11T17:50:58.159Z,20.60
2019-05-11T17:55:57.979Z,19.90
2019-05-11T17:58:27.267Z,19.90
2019-05-11T18:00:58.835Z,20.80
2019-05-11T18:03:27.897Z,20.80
2019-05-11T18:05:58.921Z,20.00
2019-05-11T18:08:30.286Z,21.00
2019-05-11T18:10:58.648Z,20.00
2019-05-11T18:15:58.423Z,21.10
2019-05-11T18:18:30.916Z,21.10
2019-05-11T18:20:59.396Z,20.90
2019-05-11T18:25:57.844Z,21.00
2019-05-11T18:30:54.443Z,21.50
2019-05-11T18:33:22.893Z,21.60
2019-05-11T18:35:51.348Z,21.10
2019-05-11T18:38:19.903Z,21.30
2019-05-11T18:43:18.867Z,21.20
2019-05-11T18:45:48.814Z,21.60
2019-05-11T18:48:18.598Z,21.80
2019-05-11T18:50:49.138Z,21.60
2019-05-11T18:53:18.701Z,21.70
2019-05-11T18:58:18.426Z,21.00
2019-05-11T19:00:48.805Z,21.80
2019-05-11T19:03:19.323Z,22.20
2019-05-11T19:05:48.319Z,21.10
2019-05-11T19:08:18.979Z,21.30
2019-05-11T19:15:48.735Z,21.80
2019-05-11T19:18:16.596Z,21.90
2019-05-11T19:20:49.141Z,22.20
2019-05-11T19:23:19.009Z,21.60
2019-05-11T19:25:48.012Z,21.80
2019-05-11T19:28:18.671Z,21.50
2019-05-11T19:30:48.810Z,21.50
2019-05-11T19:33:19.054Z,22.00
2019-05-11T19:38:18.908Z,21.40
2019-05-11T19:50:59.932Z,22.10
2019-05-11T19:53:15.962Z,22.40
2019-05-11T19:55:44.558Z,21.80
2019-05-11T19:58:13.061Z,21.50
2019-05-11T20:00:41.800Z,22.50
2019-05-11T20:03:10.251Z,22.50
2019-05-11T20:10:38.346Z,22.30
2019-05-11T20:13:08.020Z,22.20
2019-05-11T20:15:38.093Z,22.70
2019-05-11T20:20:37.681Z,22.10
2019-05-11T20:25:38.023Z,21.70
2019-05-11T20:33:03.368Z,22.20
2019-05-11T20:35:32.638Z,22.00
2019-05-11T20:38:02.540Z,22.70
2019-05-11T20:40:31.312Z,22.30
2019-05-11T20:47:58.161Z,22.90
2019-05-11T20:52:59.544Z,22.10
2019-05-11T20:57:58.264Z,22.80
2019-05-11T21:00:28.058Z,22.80
2019-05-11T21:02:58.904Z,22.00
2019-05-11T21:07:57.752Z,22.40
2019-05-11T21:10:27.894Z,22.30
2019-05-11T21:12:57.739Z,22.60
2019-05-11T21:15:28.063Z,22.90
2019-05-11T21:17:58.587Z,22.10
2019-05-11T21:22:58.058Z,22.40
2019-05-11T21:30:26.919Z,22.30
2019-05-11T21:32:58.151Z,22.80
2019-05-11T21:35:27.943Z,22.30
2019-05-11T21:37:57.989Z,22.20
2019-05-11T21:42:58.107Z,21.80
2019-05-11T21:50:27.940Z,22.40
2019-05-11T21:52:58.972Z,23.00
2019-05-11T22:00:30.759Z,22.30
2019-05-11T22:05:28.955Z,22.60
2019-05-11T22:10:28.356Z,22.20
2019-05-11T22:12:57.631Z,22.20
2019-05-11T22:15:28.340Z,22.30
2019-05-11T22:27:51.460Z,22.70
2019-05-11T22:32:48.200Z,22.70
2019-05-11T22:35:18.392Z,22.20
2019-05-11T22:37:48.748Z,22.40
2019-05-11T22:40:17.961Z,22.20
2019-05-11T22:45:18.427Z,22.00
2019-05-11T22:50:18.605Z,22.70
2019-05-11T22:52:48.428Z,21.70
2019-05-11T22:55:18.808Z,21.80
2019-05-11T22:57:49.108Z,22.20
2019-05-11T23:00:20.999Z,22.40
2019-05-11T23:05:17.632Z,22.20
2019-05-11T23:15:17.588Z,22.20
2019-05-11T23:22:57.821Z,22.20
2019-05-11T23:30:20.089Z,21.80
2019-05-11T23:35:19.174Z,22.50
2019-05-11T23:37:49.799Z,22.50
2019-05-11T23:42:49.087Z,22.50
2019-05-11T23:45:20.392Z,21.40
2019-05-11T23:47:49.173Z,22.30
2019-05-11T23:50:23.263Z,22.40
2019-05-11T23:53:05.503Z,21.50
2019-05-11T23:57:51.935Z,22.40
